createdAt,value
2023-04-19T00:00:00.068Z,7.18
2023-04-19T00:02:29.270Z,6.50
2023-04-19T00:04:57.735Z,8.32
2023-04-19T00:07:25.984Z,7.07
2023-04-19T00:09:55.756Z,7.85
2023-04-19T00:12:23.947Z,7.28
2023-04-19T00:14:53.450Z,8.02
2023-04-19T00:17:21.651Z,8.13
2023-04-19T00:19:49.708Z,8.48
2023-04-19T00:22:17.640Z,9.00
2023-04-19T00:24:45.660Z,8.80
2023-04-19T00:27:13.683Z,8.15
2023-04-19T00:29:41.884Z,9.10
2023-04-19T00:32:09.822Z,8.30
2023-04-19T00:34:38.022Z,9.35
2023-04-19T00:37:05.977Z,7.97
2023-04-19T00:39:34.169Z,9.18
2023-04-19T00:42:02.214Z,8.98
2023-04-19T00:44:30.077Z,9.13
2023-04-19T00:46:58.140Z,9.38
2023-04-19T00:49:26.858Z,9.93
2023-04-19T00:51:54.896Z,8.32
2023-04-19T00:54:23.461Z,8.55
2023-04-19T00:56:52.539Z,9.35
2023-04-19T00:59:21.182Z,8.95
2023-04-19T01:01:49.257Z,8.65
2023-04-19T01:04:18.006Z,9.23
2023-04-19T01:06:50.141Z,8.90
2023-04-19T01:09:18.164Z,10.35
2023-04-19T01:11:46.580Z,9.73
2023-04-19T01:14:15.361Z,10.68
2023-04-19T01:16:43.800Z,9.50
2023-04-19T01:19:12.240Z,8.85
2023-04-19T01:21:42.791Z,9.73
2023-04-19T01:24:10.935Z,9.85
2023-04-19T01:26:38.869Z,10.25
2023-04-19T01:29:11.218Z,9.63
2023-04-19T01:31:39.372Z,9.60
2023-04-19T01:34:07.889Z,9.98
2023-04-19T01:36:36.089Z,9.60
2023-04-19T01:39:04.191Z,9.30
2023-04-19T01:41:32.431Z,9.50
2023-04-19T01:44:00.979Z,10.68
2023-04-19T01:46:29.110Z,9.75
2023-04-19T01:48:57.033Z,9.95
2023-04-19T01:51:24.984Z,9.10
2023-04-19T01:53:54.622Z,9.63
2023-04-19T01:56:24.352Z,10.02
2023-04-19T01:58:52.408Z,9.43
2023-04-19T02:01:20.800Z,9.48
2023-04-19T02:03:50.242Z,9.98
2023-04-19T02:06:18.457Z,8.75
2023-04-19T02:08:46.519Z,9.05
2023-04-19T02:11:14.792Z,8.48
2023-04-19T02:13:43.166Z,8.73
2023-04-19T02:16:11.789Z,8.38
2023-04-19T02:18:40.612Z,9.15
2023-04-19T02:21:11.502Z,8.63
2023-04-19T02:23:39.663Z,8.73
2023-04-19T02:26:11.544Z,9.23
2023-04-19T02:28:39.867Z,8.63
2023-04-19T02:31:08.422Z,9.02
2023-04-19T02:33:36.634Z,9.20
2023-04-19T02:36:05.120Z,8.73
2023-04-19T02:38:34.831Z,8.68
2023-04-19T02:41:04.561Z,9.10
2023-04-19T02:43:34.885Z,7.28
2023-04-19T02:46:03.404Z,7.90
2023-04-19T02:48:31.483Z,7.63
2023-04-19T02:50:59.614Z,7.50
2023-04-19T02:53:28.581Z,8.20
2023-04-19T02:55:56.781Z,6.68
2023-04-19T02:58:24.923Z,6.47
2023-04-19T03:01:03.763Z,7.65
2023-04-19T03:03:34.691Z,7.70
2023-04-19T03:06:03.409Z,6.95
2023-04-19T03:08:33.076Z,5.95
2023-04-19T03:11:01.054Z,7.22
2023-04-19T03:13:31.576Z,7.22
2023-04-19T03:15:59.561Z,7.88
2023-04-19T03:18:28.572Z,7.72
2023-04-19T03:20:58.185Z,8.68
2023-04-19T03:23:30.388Z,8.40
2023-04-19T03:26:01.103Z,8.75
2023-04-19T03:28:40.279Z,8.30
2023-04-19T03:31:23.454Z,7.57
2023-04-19T03:33:53.236Z,7.47
2023-04-19T03:36:26.982Z,8.63
2023-04-19T03:38:54.986Z,9.27
2023-04-19T03:41:26.470Z,8.18
2023-04-19T03:44:03.486Z,7.38
2023-04-19T03:46:31.913Z,8.60
2023-04-19T03:49:00.812Z,8.60
2023-04-19T03:51:29.987Z,7.47
2023-04-19T03:53:58.256Z,8.55
2023-04-19T03:56:26.550Z,7.75
2023-04-19T03:58:55.550Z,8.32
2023-04-19T04:01:25.050Z,8.40
2023-04-19T04:03:54.360Z,8.50
2023-04-19T04:06:22.914Z,8.02
2023-04-19T04:08:53.869Z,8.13
2023-04-19T04:11:22.173Z,8.63
2023-04-19T04:13:50.540Z,7.35
2023-04-19T04:16:23.174Z,7.90
2023-04-19T04:18:53.678Z,7.63
2023-04-19T04:21:27.158Z,7.80
2023-04-19T04:23:57.457Z,7.38
2023-04-19T04:26:35.428Z,7.20
2023-04-19T04:29:13.559Z,6.93
2023-04-19T04:31:42.691Z,7.40
2023-04-19T04:34:11.343Z,6.30
2023-04-19T04:36:49.759Z,6.85
2023-04-19T04:39:19.072Z,7.32
2023-04-19T04:41:48.283Z,5.45
2023-04-19T04:44:18.080Z,6.65
2023-04-19T04:46:47.710Z,5.97
2023-04-19T04:49:20.857Z,6.63
2023-04-19T04:51:48.804Z,6.88
2023-04-19T04:54:17.118Z,6.60
2023-04-19T04:56:46.065Z,5.47
2023-04-19T04:59:14.376Z,6.75
2023-04-19T05:01:46.059Z,5.78
2023-04-19T05:04:15.773Z,5.75
2023-04-19T05:06:44.628Z,6.13
2023-04-19T05:09:13.955Z,5.88
2023-04-19T05:11:42.042Z,5.25
2023-04-19T05:14:10.094Z,5.40
2023-04-19T05:16:38.335Z,5.10
2023-04-19T05:19:06.631Z,5.47
2023-04-19T05:21:41.325Z,5.43
2023-04-19T05:24:11.691Z,5.50
2023-04-19T05:26:40.683Z,5.40
2023-04-19T05:29:10.084Z,5.03
2023-04-19T05:31:45.870Z,5.32
2023-04-19T05:34:22.066Z,5.55
2023-04-19T05:36:53.745Z,5.03
2023-04-19T05:39:22.139Z,4.90
2023-04-19T05:41:50.190Z,5.03
2023-04-19T05:44:18.535Z,5.05
2023-04-19T05:46:46.543Z,4.70
2023-04-19T05:49:19.323Z,3.80
2023-04-19T05:52:05.832Z,4.43
2023-04-19T05:54:46.016Z,3.17
2023-04-19T05:57:14.057Z,4.00
2023-04-19T05:59:45.026Z,2.92
2023-04-19T06:02:15.936Z,3.72
2023-04-19T06:04:44.273Z,3.53
2023-04-19T06:07:22.213Z,3.08
2023-04-19T06:10:00.197Z,3.65
2023-04-19T06:12:28.188Z,3.40
2023-04-19T06:14:56.528Z,3.38
2023-04-19T06:17:27.885Z,3.00
2023-04-19T06:19:55.766Z,3.28
2023-04-19T06:22:23.975Z,2.58
2023-04-19T06:24:51.928Z,2.92
2023-04-19T06:27:19.785Z,3.17
2023-04-19T06:29:48.818Z,2.63
2023-04-19T06:32:18.468Z,3.05
2023-04-19T06:34:49.136Z,2.60
2023-04-19T06:37:17.087Z,2.78
2023-04-19T06:39:45.072Z,2.50
2023-04-19T06:42:13.023Z,3.30
2023-04-19T06:44:40.943Z,2.85
2023-04-19T06:47:11.468Z,2.97
2023-04-19T06:49:39.319Z,2.50
2023-04-19T06:52:09.847Z,2.50
2023-04-19T06:54:37.766Z,2.83
2023-04-19T06:57:05.726Z,2.47
2023-04-19T06:59:33.790Z,3.15
2023-04-19T07:02:01.978Z,2.88
2023-04-19T07:04:30.153Z,3.15
2023-04-19T07:06:58.240Z,2.78
2023-04-19T07:09:26.363Z,2.38
2023-04-19T07:11:54.512Z,3.20
2023-04-19T07:14:23.699Z,2.20
2023-04-19T07:16:53.754Z,2.20
2023-04-19T07:19:22.915Z,2.35
2023-04-19T07:21:51.283Z,2.45
2023-04-19T07:24:19.418Z,1.80
2023-04-19T07:26:50.162Z,2.10
2023-04-19T07:29:19.253Z,2.42
2023-04-19T07:31:47.296Z,2.08
2023-04-19T07:34:15.702Z,2.00
2023-04-19T07:36:43.821Z,2.30
2023-04-19T07:39:11.976Z,1.90
2023-04-19T07:41:42.114Z,2.00
2023-04-19T07:44:11.606Z,1.80
2023-04-19T07:46:42.885Z,1.70
2023-04-19T07:49:10.973Z,1.90
2023-04-19T07:51:38.924Z,1.70
2023-04-19T07:54:07.041Z,1.83
2023-04-19T07:56:34.989Z,2.00
2023-04-19T07:59:08.366Z,1.80
2023-04-19T08:01:37.401Z,1.60
2023-04-19T08:04:05.907Z,1.60
2023-04-19T08:06:34.562Z,1.80
2023-04-19T08:09:03.205Z,1.73
2023-04-19T08:11:31.339Z,1.58
2023-04-19T08:14:09.204Z,1.40
2023-04-19T08:17:19.388Z,1.55
2023-04-19T08:19:31.289Z,1.50
2023-04-19T08:21:59.612Z,1.35
2023-04-19T08:24:27.818Z,1.55
2023-04-19T08:26:57.527Z,1.20
2023-04-19T08:29:26.849Z,1.67
2023-04-19T08:31:54.806Z,1.30
2023-04-19T08:34:22.841Z,1.33
2023-04-19T08:37:00.748Z,2.13
2023-04-19T08:39:35.493Z,1.58
2023-04-19T08:42:12.581Z,1.77
2023-04-19T08:47:30.205Z,1.58
2023-04-19T08:50:11.766Z,1.52
2023-04-19T08:52:56.061Z,1.77
2023-04-19T08:55:29.832Z,1.40
2023-04-19T08:57:58.694Z,1.60
2023-04-19T09:00:26.758Z,1.45
2023-04-19T09:02:55.890Z,1.65
2023-04-19T09:05:24.246Z,1.52
2023-04-19T09:07:52.407Z,1.92
2023-04-19T09:10:21.364Z,1.80
2023-04-19T09:13:07.394Z,1.33
2023-04-19T09:15:41.026Z,1.30
2023-04-19T09:18:10.905Z,1.73
2023-04-19T09:20:41.831Z,1.50
2023-04-19T09:23:15.067Z,1.60
2023-04-19T09:26:19.125Z,1.40
2023-04-19T09:29:03.142Z,1.60
2023-04-19T09:31:47.855Z,1.60
2023-04-19T09:34:19.992Z,1.20
2023-04-19T09:36:52.402Z,1.50
2023-04-19T09:39:32.816Z,1.60
2023-04-19T09:42:01.893Z,1.52
2023-04-19T09:47:01.645Z,1.55
2023-04-19T09:49:41.554Z,1.33
2023-04-19T09:52:16.466Z,1.60
2023-04-19T09:54:45.193Z,1.40
2023-04-19T09:57:13.763Z,1.40
2023-04-19T09:59:41.749Z,1.88
2023-04-19T10:02:13.276Z,1.83
2023-04-19T10:04:59.699Z,1.80
2023-04-19T10:07:32.858Z,1.80
2023-04-19T10:12:52.373Z,2.20
2023-04-19T10:15:26.807Z,1.75
2023-04-19T10:17:57.587Z,1.90
2023-04-19T10:20:51.122Z,1.50
2023-04-19T10:23:20.563Z,1.63
2023-04-19T10:25:49.160Z,1.80
2023-04-19T10:28:17.566Z,1.73
2023-04-19T10:31:14.710Z,1.95
2023-04-19T10:33:43.002Z,1.80
2023-04-19T10:36:15.833Z,2.00
2023-04-19T10:38:51.636Z,1.90
2023-04-19T10:41:20.112Z,1.63
2023-04-19T10:43:57.710Z,1.90
2023-04-19T10:46:26.004Z,1.90
2023-04-19T10:49:02.004Z,1.92
2023-04-19T10:51:44.361Z,2.00
2023-04-19T10:54:33.926Z,1.80
2023-04-19T10:57:06.803Z,1.80
2023-04-19T10:59:43.186Z,2.17
2023-04-19T11:02:23.864Z,1.83
2023-04-19T11:04:52.103Z,1.95
2023-04-19T11:07:21.393Z,2.10
2023-04-19T11:09:51.133Z,1.67
2023-04-19T11:12:21.053Z,2.20
2023-04-19T11:14:54.618Z,2.20
2023-04-19T11:17:28.017Z,1.70
2023-04-19T11:20:03.428Z,2.20
2023-04-19T11:22:34.917Z,1.92
2023-04-19T11:25:12.893Z,2.10
2023-04-19T11:27:42.952Z,1.75
2023-04-19T11:30:16.804Z,2.10
2023-04-19T11:32:53.623Z,2.40
2023-04-19T11:35:30.835Z,2.05
2023-04-19T11:38:00.050Z,1.90
2023-04-19T11:40:27.971Z,2.20
2023-04-19T11:43:00.205Z,2.22
2023-04-19T11:45:35.556Z,2.22
2023-04-19T11:48:07.834Z,1.80
2023-04-19T11:50:43.266Z,2.50
2023-04-19T11:53:21.791Z,1.70
2023-04-19T11:56:09.160Z,2.58
2023-04-19T11:58:44.600Z,2.05
2023-04-19T12:01:13.654Z,2.35
2023-04-19T12:03:47.122Z,2.28
2023-04-19T12:06:18.409Z,2.10
2023-04-19T12:08:48.849Z,2.50
2023-04-19T12:11:19.311Z,2.30
2023-04-19T12:13:47.690Z,2.85
2023-04-19T12:16:27.478Z,2.45
2023-04-19T12:18:55.626Z,2.53
2023-04-19T12:21:35.809Z,1.73
2023-04-19T12:24:04.091Z,2.30
2023-04-19T12:26:32.691Z,2.13
2023-04-19T12:29:02.758Z,2.30
2023-04-19T12:31:35.277Z,2.03
2023-04-19T12:34:03.166Z,2.20
2023-04-19T12:36:31.081Z,2.00
2023-04-19T12:38:59.002Z,1.85
2023-04-19T12:41:27.054Z,1.75
2023-04-19T12:43:55.103Z,2.17
2023-04-19T12:46:23.339Z,2.10
2023-04-19T12:48:51.455Z,2.08
2023-04-19T12:51:19.620Z,1.80
2023-04-19T12:53:50.888Z,1.75
2023-04-19T12:56:19.200Z,1.60
2023-04-19T12:58:47.337Z,1.70
2023-04-19T13:01:15.610Z,1.75
2023-04-19T13:03:43.906Z,2.08
2023-04-19T13:06:15.656Z,2.00
2023-04-19T13:08:47.018Z,1.90
2023-04-19T13:11:22.947Z,1.60
2023-04-19T13:13:52.852Z,1.88
2023-04-19T13:16:21.294Z,1.63
2023-04-19T13:18:51.128Z,1.90
2023-04-19T13:21:19.551Z,1.98
2023-04-19T13:23:47.794Z,1.85
2023-04-19T13:26:16.603Z,2.55
2023-04-19T13:28:44.879Z,1.90
2023-04-19T13:31:13.273Z,1.73
2023-04-19T13:33:41.556Z,1.73
2023-04-19T13:36:21.187Z,2.03
2023-04-19T13:38:49.763Z,1.90
2023-04-19T13:44:05.185Z,2.08
2023-04-19T13:46:38.015Z,1.83
2023-04-19T13:49:12.672Z,2.00
2023-04-19T13:51:51.809Z,1.98
2023-04-19T13:54:21.664Z,1.58
2023-04-19T13:56:58.933Z,1.80
2023-04-19T13:59:27.381Z,2.20
2023-04-19T14:01:56.131Z,2.10
2023-04-19T14:04:24.891Z,2.50
2023-04-19T14:06:53.230Z,2.30
2023-04-19T14:09:21.293Z,2.45
2023-04-19T14:11:49.482Z,2.40
2023-04-19T14:14:17.996Z,2.13
2023-04-19T14:16:46.216Z,2.08
2023-04-19T14:19:14.397Z,2.30
2023-04-19T14:21:43.114Z,1.80
2023-04-19T14:24:11.013Z,2.50
2023-04-19T14:26:42.029Z,2.30
2023-04-19T14:29:10.082Z,2.38
2023-04-19T14:31:38.339Z,2.25
2023-04-19T14:34:06.856Z,2.00
2023-04-19T14:36:35.003Z,2.25
2023-04-19T14:39:03.301Z,2.30
2023-04-19T14:41:31.630Z,2.67
2023-04-19T14:43:59.847Z,2.50
2023-04-19T14:46:28.173Z,2.30
2023-04-19T14:48:57.413Z,2.30
2023-04-19T14:51:26.055Z,2.90
2023-04-19T14:53:54.311Z,2.33
2023-04-19T14:56:22.350Z,2.40
2023-04-19T14:58:50.386Z,2.70
2023-04-19T15:01:18.993Z,2.92
2023-04-19T15:03:47.676Z,2.88
2023-04-19T15:06:18.510Z,1.80
2023-04-19T15:08:47.112Z,2.30
2023-04-19T15:11:17.721Z,2.53
2023-04-19T15:13:46.256Z,2.63
2023-04-19T15:16:14.637Z,2.55
2023-04-19T15:18:47.718Z,2.72
2023-04-19T15:21:24.399Z,2.92
2023-04-19T15:24:07.603Z,2.92
2023-04-19T15:29:19.039Z,2.80
2023-04-19T15:31:47.583Z,2.50
2023-04-19T15:34:16.176Z,2.20
2023-04-19T15:36:48.476Z,2.78
2023-04-19T15:39:16.996Z,2.58
2023-04-19T15:41:45.613Z,2.78
2023-04-19T15:44:13.787Z,2.70
2023-04-19T15:46:45.053Z,2.60
2023-04-19T15:49:13.370Z,2.80
2023-04-19T15:51:41.757Z,2.55
2023-04-19T15:54:15.987Z,2.65
2023-04-19T15:57:02.522Z,2.15
2023-04-19T15:59:38.692Z,2.28
2023-04-19T16:02:08.380Z,2.67
2023-04-19T16:04:43.477Z,2.85
2023-04-19T16:07:14.912Z,3.05
2023-04-19T16:09:51.335Z,2.40
2023-04-19T16:15:31.290Z,2.45
2023-04-19T16:17:59.312Z,3.47
2023-04-19T16:20:28.139Z,3.78
2023-04-19T16:23:05.730Z,2.10
2023-04-19T16:25:34.875Z,2.60
2023-04-19T16:28:13.580Z,2.90
2023-04-19T16:30:42.756Z,2.20
2023-04-19T16:33:18.137Z,2.22
2023-04-19T16:36:01.509Z,2.72
2023-04-19T16:38:36.163Z,2.20
2023-04-19T16:41:09.128Z,1.67
2023-04-19T16:43:47.333Z,2.47
2023-04-19T16:46:16.629Z,2.70
2023-04-19T16:48:55.683Z,2.63
2023-04-19T16:51:24.334Z,2.10
2023-04-19T16:53:58.455Z,1.90
2023-04-19T16:59:20.722Z,2.20
2023-04-19T17:01:49.638Z,2.00
2023-04-19T17:04:21.655Z,2.00
2023-04-19T17:07:00.369Z,1.90
2023-04-19T17:09:29.206Z,1.90
2023-04-19T17:12:09.357Z,1.98
2023-04-19T17:14:43.652Z,1.98
2023-04-19T17:17:11.931Z,1.60
2023-04-19T17:19:43.859Z,1.80
2023-04-19T17:22:15.892Z,1.80
2023-04-19T17:24:45.668Z,1.80
2023-04-19T17:27:15.294Z,1.63
2023-04-19T17:29:44.972Z,1.77
2023-04-19T17:32:26.303Z,1.65
2023-04-19T17:34:54.929Z,1.40
2023-04-19T17:37:44.138Z,1.73
2023-04-19T17:40:16.403Z,1.50
2023-04-19T17:42:48.489Z,1.70
2023-04-19T17:45:20.641Z,1.63
2023-04-19T17:47:59.700Z,1.75
2023-04-19T17:50:33.810Z,1.90
2023-04-19T17:56:08.216Z,2.10
2023-04-19T17:58:41.164Z,1.92
2023-04-19T18:01:13.007Z,1.90
2023-04-19T18:04:02.139Z,2.03
2023-04-19T18:06:32.272Z,2.13
2023-04-19T18:09:01.122Z,1.90
2023-04-19T18:11:30.208Z,2.03
2023-04-19T18:14:05.949Z,1.65
2023-04-19T18:16:35.058Z,1.70
2023-04-19T18:19:04.447Z,2.30
2023-04-19T18:21:48.530Z,2.67
2023-04-19T18:24:24.877Z,2.20
2023-04-19T18:27:07.235Z,2.00
2023-04-19T18:29:36.258Z,2.25
2023-04-19T18:32:06.671Z,1.40
2023-04-19T18:34:43.100Z,1.95
2023-04-19T18:37:19.337Z,1.75
2023-04-19T18:39:52.429Z,1.95
2023-04-19T18:42:23.335Z,2.30
2023-04-19T18:44:54.569Z,2.38
2023-04-19T18:47:26.540Z,1.77
2023-04-19T18:50:05.257Z,2.25
2023-04-19T18:52:39.196Z,2.22
2023-04-19T18:55:08.779Z,2.60
2023-04-19T18:57:39.442Z,2.20
2023-04-19T19:00:15.098Z,1.90
2023-04-19T19:02:51.056Z,2.42
2023-04-19T19:05:24.854Z,2.38
2023-04-19T19:07:57.848Z,2.15
2023-04-19T19:13:04.199Z,2.50
2023-04-19T19:18:37.296Z,2.30
2023-04-19T19:21:09.625Z,2.40
2023-04-19T19:23:42.443Z,2.10
2023-04-19T19:26:14.232Z,1.83
2023-04-19T19:28:44.041Z,2.20
2023-04-19T19:31:14.650Z,2.97
2023-04-19T19:33:51.876Z,2.80
2023-04-19T19:36:32.962Z,2.53
2023-04-19T19:39:02.845Z,2.97
2023-04-19T19:42:03.316Z,2.60
2023-04-19T19:44:22.628Z,3.03
2023-04-19T19:46:51.053Z,1.77
2023-04-19T19:49:20.085Z,2.53
2023-04-19T19:51:58.260Z,2.53
2023-04-19T19:54:27.747Z,2.45
2023-04-19T19:57:57.284Z,2.40
2023-04-19T19:59:56.356Z,2.28
2023-04-19T20:02:27.529Z,2.80
2023-04-19T20:05:00.549Z,3.30
2023-04-19T20:07:53.460Z,2.13
2023-04-19T20:10:19.838Z,3.00
2023-04-19T20:12:48.836Z,2.38
2023-04-19T20:15:17.420Z,2.80
2023-04-19T20:17:45.992Z,3.33
2023-04-19T20:20:15.196Z,2.45
2023-04-19T20:22:43.085Z,2.45
2023-04-19T20:25:13.177Z,2.65
2023-04-19T20:27:41.242Z,2.95
2023-04-19T20:30:10.161Z,2.47
2023-04-19T20:32:38.641Z,2.75
2023-04-19T20:35:09.364Z,2.50
2023-04-19T20:37:41.638Z,2.72
2023-04-19T20:40:12.706Z,2.55
2023-04-19T20:42:41.465Z,2.47
2023-04-19T20:45:10.623Z,2.70
2023-04-19T20:47:38.889Z,2.70
2023-04-19T20:50:07.928Z,2.15
2023-04-19T20:52:36.173Z,2.10
2023-04-19T20:55:05.003Z,2.33
2023-04-19T20:57:33.061Z,2.60
2023-04-19T21:00:01.135Z,2.50
2023-04-19T21:02:29.491Z,2.15
2023-04-19T21:04:57.586Z,2.40
2023-04-19T21:07:25.629Z,2.70
2023-04-19T21:09:53.565Z,2.67
2023-04-19T21:12:21.504Z,2.95
2023-04-19T21:14:52.304Z,2.38
2023-04-19T21:17:20.927Z,2.60
2023-04-19T21:19:49.301Z,2.70
2023-04-19T21:22:17.365Z,2.90
2023-04-19T21:24:45.371Z,2.30
2023-04-19T21:27:13.810Z,2.60
2023-04-19T21:29:41.820Z,2.25
2023-04-19T21:32:09.792Z,2.58
2023-04-19T21:34:38.436Z,2.67
2023-04-19T21:37:06.801Z,2.22
2023-04-19T21:39:34.870Z,2.70
2023-04-19T21:42:02.877Z,2.30
2023-04-19T21:44:35.346Z,2.40
2023-04-19T21:47:03.879Z,2.20
2023-04-19T21:49:32.327Z,2.33
2023-04-19T21:52:03.769Z,1.75
2023-04-19T21:54:34.379Z,2.80
2023-04-19T21:57:03.211Z,2.40
2023-04-19T21:59:34.744Z,2.20
2023-04-19T22:02:03.431Z,1.98
2023-04-19T22:04:31.769Z,2.30
2023-04-19T22:07:03.256Z,2.05
2023-04-19T22:09:31.703Z,2.20
2023-04-19T22:12:05.436Z,1.92
2023-04-19T22:14:35.754Z,2.20
2023-04-19T22:17:04.815Z,2.10
2023-04-19T22:19:32.965Z,1.80
2023-04-19T22:22:03.527Z,2.10
2023-04-19T22:24:31.621Z,2.30
2023-04-19T22:27:01.799Z,2.25
2023-04-19T22:29:30.140Z,2.08
2023-04-19T22:31:58.422Z,1.90
2023-04-19T22:34:26.475Z,2.00
2023-04-19T22:36:54.522Z,2.40
2023-04-19T22:39:22.590Z,2.20
2023-04-19T22:41:50.954Z,2.13
2023-04-19T22:44:19.012Z,2.50
2023-04-19T22:46:47.449Z,2.40
2023-04-19T22:49:15.929Z,2.40
2023-04-19T22:51:45.211Z,2.20
2023-04-19T22:54:13.271Z,2.30
2023-04-19T22:56:41.437Z,2.00
2023-04-19T22:59:09.552Z,2.08
2023-04-19T23:01:37.687Z,2.15
2023-04-19T23:04:05.890Z,2.00
2023-04-19T23:06:33.813Z,2.20
2023-04-19T23:09:02.256Z,2.10
2023-04-19T23:11:30.597Z,2.30
2023-04-19T23:13:58.771Z,2.30
2023-04-19T23:16:29.325Z,2.10
2023-04-19T23:18:57.312Z,2.38
2023-04-19T23:21:25.535Z,2.10
2023-04-19T23:23:56.093Z,2.00
2023-04-19T23:26:24.444Z,2.00
2023-04-19T23:28:52.440Z,2.53
2023-04-19T23:31:20.766Z,2.50
2023-04-19T23:33:49.203Z,2.20
2023-04-19T23:36:17.260Z,2.53
2023-04-19T23:38:45.148Z,2.47
2023-04-19T23:41:13.387Z,2.42
2023-04-19T23:43:46.448Z,2.67
2023-04-19T23:46:14.473Z,2.90
2023-04-19T23:48:42.878Z,2.35
2023-04-19T23:51:12.524Z,2.63
2023-04-19T23:53:41.018Z,2.40
2023-04-19T23:56:12.551Z,2.33
2023-04-19T23:58:41.450Z,2.13
